createdAt,value
2023-01-01T00:00:28.244Z,12.57
2023-01-01T00:01:28.182Z,12.55
2023-01-01T00:02:33.273Z,12.67
2023-01-01T00:03:30.445Z,12.72
2023-01-01T00:04:28.156Z,12.57
2023-01-01T00:05:28.172Z,12.76
2023-01-01T00:06:28.134Z,12.79
2023-01-01T00:07:28.127Z,12.80
2023-01-01T00:08:28.143Z,12.75
2023-01-01T00:09:28.122Z,12.67
2023-01-01T00:10:28.127Z,12.61
2023-01-01T00:11:28.148Z,12.61
2023-01-01T00:12:28.092Z,12.55
2023-01-01T00:13:28.072Z,12.45
2023-01-01T00:14:28.075Z,12.43
2023-01-01T00:15:28.129Z,12.39
2023-01-01T00:16:28.066Z,12.29
2023-01-01T00:17:28.110Z,12.35
2023-01-01T00:18:28.041Z,12.24
2023-01-01T00:19:28.062Z,12.32
2023-01-01T00:20:33.329Z,12.25
2023-01-01T00:21:30.025Z,12.35
2023-01-01T00:22:53.496Z,12.29
2023-01-01T00:23:30.023Z,12.24
2023-01-01T00:24:28.007Z,12.24
2023-01-01T00:25:28.006Z,12.25
2023-01-01T00:26:32.746Z,12.28
2023-01-01T00:27:29.968Z,12.24
2023-01-01T00:28:27.967Z,12.31
2023-01-01T00:29:28.960Z,12.31
2023-01-01T00:30:28.015Z,12.35
2023-01-01T00:31:28.047Z,12.31
2023-01-01T00:32:28.022Z,12.42
2023-01-01T00:33:27.997Z,12.32
2023-01-01T00:34:27.966Z,12.29
2023-01-01T00:35:27.964Z,12.24
2023-01-01T00:36:28.036Z,12.25
2023-01-01T00:37:27.958Z,12.46
2023-01-01T00:38:27.883Z,12.47
2023-01-01T00:39:27.877Z,12.35
2023-01-01T00:40:27.896Z,12.47
2023-01-01T00:41:27.858Z,12.57
2023-01-01T00:42:27.866Z,12.50
2023-01-01T00:43:27.848Z,12.58
2023-01-01T00:44:27.841Z,12.47
2023-01-01T00:45:27.857Z,12.46
2023-01-01T00:46:27.857Z,12.50
2023-01-01T00:47:27.822Z,12.49
2023-01-01T00:48:27.821Z,12.49
2023-01-01T00:49:27.799Z,12.46
2023-01-01T00:50:27.826Z,12.36
2023-01-01T00:51:30.469Z,12.28
2023-01-01T00:52:29.773Z,12.29
2023-01-01T00:53:27.768Z,12.15
2023-01-01T00:54:27.753Z,12.18
2023-01-01T00:55:27.782Z,12.15
2023-01-01T00:56:27.735Z,12.13
2023-01-01T00:57:27.735Z,12.24
2023-01-01T00:58:27.736Z,12.27
2023-01-01T00:59:29.047Z,12.32
2023-01-01T01:00:28.743Z,12.09
2023-01-01T01:01:27.823Z,12.06
2023-01-01T01:02:27.838Z,12.09
2023-01-01T01:03:27.684Z,12.17
2023-01-01T01:04:27.677Z,12.12
2023-01-01T01:05:27.698Z,12.09
2023-01-01T01:06:27.693Z,12.06
2023-01-01T01:07:27.650Z,12.04
2023-01-01T01:08:31.014Z,11.99
2023-01-01T01:09:28.642Z,11.90
2023-01-01T01:10:27.651Z,11.86
2023-01-01T01:11:27.623Z,11.81
2023-01-01T01:12:27.619Z,11.87
2023-01-01T01:13:27.601Z,11.83
2023-01-01T01:14:27.594Z,11.83
2023-01-01T01:15:27.585Z,11.78
2023-01-01T01:16:27.652Z,11.86
2023-01-01T01:17:27.576Z,11.83
2023-01-01T01:18:27.570Z,11.83
2023-01-01T01:19:27.552Z,11.75
2023-01-01T01:20:27.555Z,11.73
2023-01-01T01:21:27.568Z,11.69
2023-01-01T01:22:28.989Z,11.66
2023-01-01T01:23:28.563Z,11.65
2023-01-01T01:24:27.513Z,11.69
2023-01-01T01:25:27.507Z,11.54
2023-01-01T01:26:27.525Z,11.52
2023-01-01T01:27:27.488Z,11.51
2023-01-01T01:28:27.610Z,11.45
2023-01-01T01:29:27.475Z,11.51
2023-01-01T01:30:27.556Z,11.47
2023-01-01T01:31:27.494Z,11.54
2023-01-01T01:32:27.465Z,11.48
2023-01-01T01:33:27.449Z,11.54
2023-01-01T01:34:28.423Z,11.55
2023-01-01T01:35:28.437Z,11.47
2023-01-01T01:36:27.460Z,11.51
2023-01-01T01:37:27.419Z,11.48
2023-01-01T01:38:27.447Z,11.51
2023-01-01T01:39:27.407Z,11.48
2023-01-01T01:40:27.403Z,11.36
2023-01-01T01:41:29.028Z,11.32
2023-01-01T01:42:28.376Z,11.40
2023-01-01T01:43:27.369Z,11.33
2023-01-01T01:44:27.362Z,11.37
2023-01-01T01:45:33.278Z,11.43
2023-01-01T01:46:29.415Z,11.41
2023-01-01T01:47:27.355Z,11.40
2023-01-01T01:48:27.324Z,11.43
2023-01-01T01:49:27.333Z,11.37
2023-01-01T01:50:27.321Z,11.41
2023-01-01T01:51:27.330Z,11.35
2023-01-01T01:52:27.304Z,11.35
2023-01-01T01:53:27.293Z,11.30
2023-01-01T01:54:27.279Z,11.23
2023-01-01T01:55:27.280Z,11.22
2023-01-01T01:56:27.289Z,11.07
2023-01-01T01:57:27.253Z,11.10
2023-01-01T01:58:27.254Z,11.07
2023-01-01T01:59:27.249Z,11.05
2023-01-01T02:00:27.237Z,10.94
2023-01-01T02:01:27.364Z,11.05
2023-01-01T02:02:27.375Z,10.92
2023-01-01T02:03:27.304Z,10.97
2023-01-01T02:04:27.236Z,11.00
2023-01-01T02:05:27.198Z,10.96
2023-01-01T02:06:27.220Z,10.99
2023-01-01T02:07:27.216Z,10.92
2023-01-01T02:08:27.183Z,10.97
2023-01-01T02:09:27.231Z,11.04
2023-01-01T02:10:27.150Z,10.93
2023-01-01T02:11:27.170Z,11.07
2023-01-01T02:12:27.133Z,11.07
2023-01-01T02:13:27.139Z,11.11
2023-01-01T02:14:27.122Z,11.11
2023-01-01T02:15:27.112Z,11.04
2023-01-01T02:16:27.145Z,11.14
2023-01-01T02:17:27.096Z,11.04
2023-01-01T02:18:27.095Z,10.94
2023-01-01T02:19:27.085Z,11.00
2023-01-01T02:20:27.079Z,11.04
2023-01-01T02:21:27.097Z,11.10
2023-01-01T02:22:27.064Z,11.30
2023-01-01T02:23:27.044Z,11.37
2023-01-01T02:24:27.038Z,11.25
2023-01-01T02:25:27.033Z,11.36
2023-01-01T02:26:27.021Z,11.36
2023-01-01T02:27:27.040Z,11.43
2023-01-01T02:28:27.010Z,11.40
2023-01-01T02:29:27.009Z,11.35
2023-01-01T02:30:26.994Z,11.30
2023-01-01T02:31:27.072Z,11.25
2023-01-01T02:32:27.013Z,11.25
2023-01-01T02:33:26.974Z,11.14
2023-01-01T02:34:26.974Z,11.15
2023-01-01T02:35:26.959Z,11.08
2023-01-01T02:36:26.966Z,11.27
2023-01-01T02:37:26.966Z,11.32
2023-01-01T02:38:26.934Z,11.35
2023-01-01T02:39:26.929Z,11.54
2023-01-01T02:40:26.922Z,11.50
2023-01-01T02:41:26.907Z,11.47
2023-01-01T02:42:26.936Z,11.43
2023-01-01T02:43:26.913Z,11.51
2023-01-01T02:44:26.924Z,11.55
2023-01-01T02:45:26.875Z,11.48
2023-01-01T02:46:26.871Z,11.63
2023-01-01T02:47:26.883Z,11.57
2023-01-01T02:48:26.854Z,11.62
2023-01-01T02:49:26.854Z,11.63
2023-01-01T02:50:26.837Z,11.65
2023-01-01T02:51:26.834Z,11.70
2023-01-01T02:52:26.846Z,11.63
2023-01-01T02:53:26.815Z,11.69
2023-01-01T02:54:26.812Z,11.65
2023-01-01T02:55:26.798Z,11.65
2023-01-01T02:56:26.788Z,11.73
2023-01-01T02:57:26.801Z,11.77
2023-01-01T02:58:26.826Z,11.80
2023-01-01T02:59:26.761Z,11.81
2023-01-01T03:00:26.768Z,11.77
2023-01-01T03:01:26.843Z,11.91
2023-01-01T03:02:26.822Z,11.95
2023-01-01T03:03:26.844Z,11.83
2023-01-01T03:04:26.727Z,11.91
2023-01-01T03:05:26.730Z,11.86
2023-01-01T03:06:26.736Z,11.83
2023-01-01T03:07:26.775Z,11.90
2023-01-01T03:08:27.707Z,11.94
2023-01-01T03:09:26.697Z,11.99
2023-01-01T03:10:26.683Z,11.97
2023-01-01T03:11:26.676Z,11.97
2023-01-01T03:12:26.697Z,12.00
2023-01-01T03:13:26.690Z,12.04
2023-01-01T03:14:26.649Z,12.02
2023-01-01T03:15:26.646Z,12.18
2023-01-01T03:16:26.635Z,12.22
2023-01-01T03:17:26.690Z,12.28
2023-01-01T03:18:26.642Z,12.24
2023-01-01T03:19:26.614Z,12.21
2023-01-01T03:20:26.601Z,12.09
2023-01-01T03:21:26.609Z,12.10
2023-01-01T03:22:26.599Z,12.12
2023-01-01T03:23:26.619Z,12.07
2023-01-01T03:24:26.580Z,11.95
2023-01-01T03:25:26.557Z,11.99
2023-01-01T03:26:26.552Z,12.10
2023-01-01T03:27:26.625Z,11.90
2023-01-01T03:28:26.566Z,12.04
2023-01-01T03:29:26.581Z,12.03
2023-01-01T03:30:26.521Z,12.03
2023-01-01T03:31:26.674Z,11.99
2023-01-01T03:32:26.508Z,11.99
2023-01-01T03:33:26.522Z,11.91
2023-01-01T03:34:26.501Z,11.97
2023-01-01T03:35:26.492Z,11.91
2023-01-01T03:36:26.501Z,11.87
2023-01-01T03:37:26.467Z,11.86
2023-01-01T03:38:26.496Z,11.90
2023-01-01T03:39:26.451Z,11.86
2023-01-01T03:40:26.452Z,11.86
2023-01-01T03:41:26.449Z,11.80
2023-01-01T03:42:26.436Z,11.86
2023-01-01T03:43:26.445Z,11.80
2023-01-01T03:44:26.419Z,11.80
2023-01-01T03:45:26.406Z,11.80
2023-01-01T03:46:26.412Z,11.70
2023-01-01T03:47:26.393Z,11.70
2023-01-01T03:48:26.413Z,11.62
2023-01-01T03:49:26.372Z,11.51
2023-01-01T03:50:26.368Z,11.50
2023-01-01T03:51:26.361Z,11.44
2023-01-01T03:52:26.348Z,11.35
2023-01-01T03:53:26.375Z,11.26
2023-01-01T03:54:26.352Z,11.25
2023-01-01T03:55:26.330Z,11.08
2023-01-01T03:56:26.318Z,11.12
2023-01-01T03:57:26.314Z,11.27
2023-01-01T03:58:26.340Z,11.36
2023-01-01T03:59:26.295Z,11.43
2023-01-01T04:00:26.286Z,11.52
2023-01-01T04:01:26.451Z,11.59
2023-01-01T04:02:26.385Z,11.70
2023-01-01T04:03:26.327Z,11.63
2023-01-01T04:04:26.256Z,11.70
2023-01-01T04:05:26.250Z,11.75
2023-01-01T04:06:26.260Z,11.77
2023-01-01T04:07:26.228Z,11.83
2023-01-01T04:08:26.223Z,11.83
2023-01-01T04:09:26.245Z,11.75
2023-01-01T04:10:26.211Z,11.62
2023-01-01T04:11:26.207Z,11.62
2023-01-01T04:12:26.195Z,11.69
2023-01-01T04:13:26.186Z,11.75
2023-01-01T04:14:26.207Z,11.72
2023-01-01T04:15:26.173Z,11.59
2023-01-01T04:16:26.205Z,11.54
2023-01-01T04:17:26.148Z,11.55
2023-01-01T04:18:26.159Z,11.51
2023-01-01T04:19:26.174Z,11.35
2023-01-01T04:20:26.142Z,11.47
2023-01-01T04:21:26.140Z,11.41
2023-01-01T04:22:26.113Z,11.41
2023-01-01T04:23:26.114Z,11.43
2023-01-01T04:24:26.129Z,11.41
2023-01-01T04:25:26.097Z,11.26
2023-01-01T04:26:26.098Z,11.25
2023-01-01T04:27:26.085Z,11.29
2023-01-01T04:28:26.073Z,11.23
2023-01-01T04:29:26.090Z,11.10
2023-01-01T04:30:26.055Z,11.19
2023-01-01T04:31:26.048Z,11.17
2023-01-01T04:32:26.038Z,11.05
2023-01-01T04:33:26.031Z,11.14
2023-01-01T04:34:26.063Z,11.11
2023-01-01T04:35:26.043Z,11.05
2023-01-01T04:36:26.030Z,11.04
2023-01-01T04:37:26.003Z,10.92
2023-01-01T04:38:26.001Z,10.94
2023-01-01T04:39:26.004Z,11.00
2023-01-01T04:40:25.988Z,11.02
2023-01-01T04:41:25.977Z,11.02
2023-01-01T04:42:25.964Z,11.02
2023-01-01T04:43:25.962Z,11.08
2023-01-01T04:44:25.979Z,11.08
2023-01-01T04:45:26.013Z,11.14
2023-01-01T04:46:25.951Z,11.08
2023-01-01T04:47:25.922Z,11.04
2023-01-01T04:48:25.918Z,11.07
2023-01-01T04:49:25.936Z,11.10
2023-01-01T04:50:25.903Z,11.00
2023-01-01T04:51:25.905Z,11.04
2023-01-01T04:52:25.892Z,11.18
2023-01-01T04:53:25.873Z,11.18
2023-01-01T04:54:25.902Z,11.14
2023-01-01T04:55:25.855Z,11.18
2023-01-01T04:56:25.854Z,11.14
2023-01-01T04:57:25.842Z,11.14
2023-01-01T04:58:25.840Z,11.15
2023-01-01T04:59:25.852Z,11.12
2023-01-01T05:00:25.843Z,11.18
2023-01-01T05:01:25.909Z,11.25
2023-01-01T05:02:25.933Z,11.19
2023-01-01T05:03:25.794Z,11.18
2023-01-01T05:04:25.826Z,11.27
2023-01-01T05:05:25.781Z,11.36
2023-01-01T05:06:25.800Z,11.43
2023-01-01T05:07:25.778Z,11.47
2023-01-01T05:08:25.757Z,11.59
2023-01-01T05:09:25.755Z,11.57
2023-01-01T05:10:25.760Z,11.52
2023-01-01T05:11:26.742Z,11.65
2023-01-01T05:12:25.727Z,11.54
2023-01-01T05:13:25.720Z,11.59
2023-01-01T05:14:25.712Z,11.66
2023-01-01T05:15:25.728Z,11.70
2023-01-01T05:16:25.723Z,11.83
2023-01-01T05:17:25.690Z,11.95
2023-01-01T05:18:25.679Z,12.02
2023-01-01T05:19:25.669Z,11.95
2023-01-01T05:20:25.701Z,12.17
2023-01-01T05:21:25.661Z,12.37
2023-01-01T05:22:25.651Z,12.36
2023-01-01T05:23:25.643Z,12.50
2023-01-01T05:24:25.632Z,12.46
2023-01-01T05:25:25.650Z,12.49
2023-01-01T05:26:25.623Z,12.49
2023-01-01T05:27:25.608Z,12.55
2023-01-01T05:28:25.600Z,12.64
2023-01-01T05:29:25.595Z,12.73
2023-01-01T05:30:25.615Z,12.62
2023-01-01T05:31:25.626Z,12.70
2023-01-01T05:32:25.569Z,12.83
2023-01-01T05:33:25.565Z,12.79
2023-01-01T05:34:25.570Z,12.78
2023-01-01T05:35:26.802Z,12.68
2023-01-01T05:36:26.543Z,12.75
2023-01-01T05:37:25.533Z,12.67
2023-01-01T05:38:25.519Z,12.68
2023-01-01T05:39:25.523Z,12.60
2023-01-01T05:40:25.532Z,12.58
2023-01-01T05:41:25.496Z,12.58
2023-01-01T05:42:25.485Z,12.47
2023-01-01T05:43:25.504Z,12.45
2023-01-01T05:44:25.484Z,12.39
2023-01-01T05:45:25.502Z,12.39
2023-01-01T05:46:25.466Z,12.28
2023-01-01T05:47:29.644Z,12.29
2023-01-01T05:48:25.444Z,12.35
2023-01-01T05:49:25.429Z,12.42
2023-01-01T05:50:25.452Z,12.39
2023-01-01T05:51:25.426Z,12.46
2023-01-01T05:52:27.024Z,12.42
2023-01-01T05:53:26.399Z,12.29
2023-01-01T05:54:25.395Z,12.28
2023-01-01T05:55:25.405Z,12.25
2023-01-01T05:56:25.375Z,12.22
2023-01-01T05:57:25.365Z,12.21
2023-01-01T05:58:25.369Z,12.13
2023-01-01T05:59:25.356Z,12.10
2023-01-01T06:00:25.365Z,12.20
2023-01-01T06:01:25.435Z,12.06
2023-01-01T06:02:25.407Z,12.04
2023-01-01T06:03:25.339Z,12.03
2023-01-01T06:04:25.362Z,12.02
2023-01-01T06:05:25.338Z,12.09
2023-01-01T06:06:25.312Z,12.13
2023-01-01T06:07:25.289Z,12.18
2023-01-01T06:08:25.287Z,12.29
2023-01-01T06:09:25.287Z,12.32
2023-01-01T06:10:25.298Z,12.22
2023-01-01T06:11:25.259Z,12.24
2023-01-01T06:12:25.251Z,12.24
2023-01-01T06:13:25.255Z,12.32
2023-01-01T06:14:25.243Z,12.27
2023-01-01T06:15:25.265Z,12.29
2023-01-01T06:16:25.285Z,12.35
2023-01-01T06:17:25.213Z,12.35
2023-01-01T06:18:25.206Z,12.40
2023-01-01T06:19:25.202Z,12.49
2023-01-01T06:20:25.182Z,12.42
2023-01-01T06:21:25.209Z,12.40
2023-01-01T06:22:25.174Z,12.36
2023-01-01T06:23:25.166Z,12.31
2023-01-01T06:24:25.166Z,12.49
2023-01-01T06:25:25.139Z,12.45
2023-01-01T06:26:25.181Z,12.50
2023-01-01T06:27:25.130Z,12.55
2023-01-01T06:28:25.132Z,12.54
2023-01-01T06:29:25.124Z,12.49
2023-01-01T06:30:25.131Z,12.50
2023-01-01T06:31:25.136Z,12.43
2023-01-01T06:32:25.105Z,12.37
2023-01-01T06:33:25.083Z,12.47
2023-01-01T06:34:25.084Z,12.42
2023-01-01T06:35:25.072Z,12.46
2023-01-01T06:36:25.090Z,12.47
2023-01-01T06:37:25.051Z,12.47
2023-01-01T06:38:26.064Z,12.53
2023-01-01T06:39:25.040Z,12.61
2023-01-01T06:40:25.031Z,12.61
2023-01-01T06:41:25.064Z,12.58
2023-01-01T06:42:27.840Z,12.53
2023-01-01T06:43:26.999Z,12.65
2023-01-01T06:44:24.999Z,12.75
2023-01-01T06:45:24.991Z,12.68
2023-01-01T06:46:25.027Z,12.70
2023-01-01T06:47:24.974Z,12.79
2023-01-01T06:48:24.968Z,12.85
2023-01-01T06:49:24.966Z,12.97
2023-01-01T06:50:24.955Z,12.94
2023-01-01T06:51:24.994Z,12.91
2023-01-01T06:52:24.943Z,12.85
2023-01-01T06:53:24.936Z,12.94
2023-01-01T06:54:24.922Z,12.98
2023-01-01T06:55:24.913Z,13.01
2023-01-01T06:56:24.930Z,13.00
2023-01-01T06:57:24.898Z,12.82
2023-01-01T06:58:24.890Z,12.93
2023-01-01T06:59:24.892Z,12.91
2023-01-01T07:00:24.873Z,12.93
2023-01-01T07:01:24.996Z,12.94
2023-01-01T07:02:25.058Z,12.91
2023-01-01T07:03:24.882Z,12.91
2023-01-01T07:04:24.857Z,12.94
2023-01-01T07:05:24.837Z,12.93
2023-01-01T07:06:24.841Z,12.90
2023-01-01T07:07:27.831Z,12.86
2023-01-01T07:08:24.806Z,12.83
2023-01-01T07:09:24.800Z,12.87
2023-01-01T07:10:24.786Z,12.79
2023-01-01T07:11:24.816Z,12.76
2023-01-01T07:12:24.769Z,12.85
2023-01-01T07:13:24.759Z,12.82
2023-01-01T07:14:24.756Z,12.90
2023-01-01T07:15:24.745Z,12.87
2023-01-01T07:16:24.944Z,12.85
2023-01-01T07:17:24.730Z,12.85
2023-01-01T07:18:24.719Z,12.85
2023-01-01T07:19:24.718Z,12.90
2023-01-01T07:20:24.711Z,12.91
2023-01-01T07:21:28.732Z,12.93
2023-01-01T07:22:25.692Z,12.90
2023-01-01T07:23:24.684Z,12.91
2023-01-01T07:24:24.673Z,12.93
2023-01-01T07:25:24.663Z,12.93
2023-01-01T07:26:24.688Z,12.98
2023-01-01T07:27:24.645Z,12.94
2023-01-01T07:28:24.648Z,13.01
2023-01-01T07:29:24.633Z,12.94
2023-01-01T07:30:24.625Z,12.83
2023-01-01T07:31:24.691Z,12.83
2023-01-01T07:32:24.615Z,12.82
2023-01-01T07:33:24.597Z,12.85
2023-01-01T07:34:24.588Z,12.80
2023-01-01T07:35:24.587Z,12.78
2023-01-01T07:36:24.575Z,12.73
2023-01-01T07:37:24.592Z,12.82
2023-01-01T07:38:24.563Z,12.94
2023-01-01T07:39:24.549Z,12.98
2023-01-01T07:40:24.543Z,13.04
2023-01-01T07:41:24.537Z,13.01
2023-01-01T07:42:24.559Z,13.04
2023-01-01T07:43:24.518Z,13.11
2023-01-01T07:44:24.514Z,13.23
2023-01-01T07:45:24.505Z,13.22
2023-01-01T07:46:24.666Z,13.20
2023-01-01T07:47:24.510Z,13.09
2023-01-01T07:48:24.479Z,13.19
2023-01-01T07:49:24.468Z,13.27
2023-01-01T07:50:24.461Z,13.23
2023-01-01T07:51:24.483Z,13.20
2023-01-01T07:52:24.470Z,13.28
2023-01-01T07:53:24.451Z,13.41
2023-01-01T07:54:24.430Z,13.28
2023-01-01T07:55:24.430Z,13.25
2023-01-01T07:56:24.416Z,13.28
2023-01-01T07:57:24.433Z,13.33
2023-01-01T07:58:24.407Z,13.39
2023-01-01T07:59:24.391Z,13.49
2023-01-01T08:00:24.381Z,13.47
2023-01-01T08:01:24.498Z,13.52
2023-01-01T08:02:24.487Z,13.57
2023-01-01T08:03:24.424Z,13.53
2023-01-01T08:04:24.352Z,13.53
2023-01-01T08:05:26.838Z,13.59
2023-01-01T08:06:25.370Z,13.60
2023-01-01T08:07:24.360Z,13.65
2023-01-01T08:08:24.319Z,13.75
2023-01-01T08:09:24.321Z,13.65
2023-01-01T08:10:24.323Z,13.71
2023-01-01T08:11:24.306Z,13.78
2023-01-01T08:12:24.314Z,13.71
2023-01-01T08:13:24.285Z,13.81
2023-01-01T08:14:24.273Z,13.74
2023-01-01T08:15:24.268Z,13.75
2023-01-01T08:16:24.317Z,13.75
2023-01-01T08:17:24.274Z,13.74
2023-01-01T08:18:24.240Z,13.75
2023-01-01T08:19:24.231Z,13.77
2023-01-01T08:20:24.220Z,13.86
2023-01-01T08:21:24.225Z,13.87
2023-01-01T08:22:24.227Z,13.79
2023-01-01T08:23:24.210Z,13.87
2023-01-01T08:24:24.201Z,13.81
2023-01-01T08:25:24.199Z,13.90
2023-01-01T08:26:24.179Z,13.93
2023-01-01T08:27:24.203Z,13.92
2023-01-01T08:28:24.164Z,13.85
2023-01-01T08:29:24.169Z,13.86
2023-01-01T08:30:24.146Z,13.90
2023-01-01T08:31:24.211Z,13.92
2023-01-01T08:32:24.160Z,13.96
2023-01-01T08:33:24.124Z,13.90
2023-01-01T08:34:24.116Z,13.99
2023-01-01T08:35:24.109Z,14.00
2023-01-01T08:36:24.099Z,13.87
2023-01-01T08:37:24.123Z,14.07
2023-01-01T08:38:24.086Z,13.96
2023-01-01T08:39:24.074Z,14.04
2023-01-01T08:40:24.068Z,14.05
2023-01-01T08:41:24.060Z,14.17
2023-01-01T08:42:24.075Z,14.33
2023-01-01T08:43:24.060Z,14.36
2023-01-01T08:44:24.032Z,14.33
2023-01-01T08:45:24.032Z,14.65
2023-01-01T08:46:24.065Z,14.78
2023-01-01T08:47:24.036Z,14.99
2023-01-01T08:48:30.368Z,15.15
2023-01-01T08:49:25.993Z,15.07
2023-01-01T08:50:23.989Z,15.06
2023-01-01T08:51:23.983Z,15.31
2023-01-01T08:52:24.017Z,15.46
2023-01-01T08:53:23.959Z,15.55
2023-01-01T08:54:23.953Z,15.59
2023-01-01T08:55:23.950Z,15.83
2023-01-01T08:56:23.937Z,15.73
2023-01-01T08:57:23.936Z,15.72
2023-01-01T08:58:23.968Z,15.82
2023-01-01T08:59:23.910Z,15.73
2023-01-01T09:00:24.915Z,15.75
2023-01-01T09:01:23.992Z,15.72
2023-01-01T09:02:24.014Z,15.72
2023-01-01T09:03:24.038Z,15.64
2023-01-01T09:04:23.874Z,15.70
2023-01-01T09:05:23.890Z,15.82
2023-01-01T09:06:23.862Z,15.92
2023-01-01T09:07:23.866Z,15.98
2023-01-01T09:08:23.878Z,16.08
2023-01-01T09:09:30.837Z,16.08
2023-01-01T09:10:25.913Z,16.24
2023-01-01T09:11:23.833Z,16.31
2023-01-01T09:12:23.816Z,16.46
2023-01-01T09:13:23.838Z,16.24
2023-01-01T09:14:23.806Z,16.31
2023-01-01T09:15:23.803Z,16.33
2023-01-01T09:16:23.851Z,16.36
2023-01-01T09:17:23.773Z,16.13
2023-01-01T09:18:23.790Z,15.94
2023-01-01T09:19:23.759Z,15.98
2023-01-01T09:20:23.755Z,15.94
2023-01-01T09:21:23.751Z,15.77
2023-01-01T09:22:23.735Z,15.72
2023-01-01T09:23:23.754Z,15.59
2023-01-01T09:24:23.723Z,15.57
2023-01-01T09:25:23.709Z,15.42
2023-01-01T09:26:23.707Z,15.47
2023-01-01T09:27:23.692Z,15.33
2023-01-01T09:28:26.094Z,15.31
2023-01-01T09:29:24.679Z,15.18
2023-01-01T09:30:23.669Z,15.07
2023-01-01T09:31:23.705Z,14.96
2023-01-01T09:32:23.659Z,14.85
2023-01-01T09:33:23.671Z,14.88
2023-01-01T09:34:23.637Z,14.89
2023-01-01T09:35:23.631Z,14.79
2023-01-01T09:36:23.628Z,14.72
2023-01-01T09:37:23.613Z,14.58
2023-01-01T09:38:23.632Z,14.55
2023-01-01T09:39:23.599Z,14.58
2023-01-01T09:40:23.603Z,14.51
2023-01-01T09:41:23.582Z,14.53
2023-01-01T09:42:23.574Z,14.54
2023-01-01T09:43:23.597Z,14.55
2023-01-01T09:44:23.564Z,14.58
2023-01-01T09:45:23.553Z,14.54
2023-01-01T09:46:29.571Z,14.54
2023-01-01T09:47:25.543Z,14.55
2023-01-01T09:48:23.561Z,14.55
2023-01-01T09:49:23.532Z,14.48
2023-01-01T09:50:23.512Z,14.50
2023-01-01T09:51:23.508Z,14.50
2023-01-01T09:52:23.518Z,14.55
2023-01-01T09:53:23.511Z,14.55
2023-01-01T09:54:23.494Z,14.59
2023-01-01T09:55:23.469Z,14.53
2023-01-01T09:56:23.469Z,14.59
2023-01-01T09:57:23.462Z,14.47
2023-01-01T09:58:23.443Z,14.44
2023-01-01T09:59:23.459Z,14.41
2023-01-01T10:00:23.451Z,14.50
2023-01-01T10:01:23.605Z,14.50
2023-01-01T10:02:23.417Z,14.59
2023-01-01T10:03:23.409Z,14.47
2023-01-01T10:04:23.456Z,14.33
2023-01-01T10:05:23.393Z,14.41
2023-01-01T10:06:23.386Z,14.36
2023-01-01T10:07:23.373Z,14.29
2023-01-01T10:08:23.835Z,14.40
2023-01-01T10:09:24.389Z,14.44
2023-01-01T10:10:23.430Z,14.35
2023-01-01T10:11:23.355Z,14.35
2023-01-01T10:12:23.348Z,14.33
2023-01-01T10:13:23.337Z,14.59
2023-01-01T10:14:23.352Z,14.51
2023-01-01T10:15:23.334Z,14.48
2023-01-01T10:16:25.050Z,14.48
2023-01-01T10:17:24.299Z,14.50
2023-01-01T10:18:23.287Z,14.62
2023-01-01T10:19:23.310Z,14.59
2023-01-01T10:20:23.334Z,14.63
2023-01-01T10:21:23.265Z,14.53
2023-01-01T10:22:23.259Z,14.55
2023-01-01T10:23:23.253Z,14.45
2023-01-01T10:24:23.270Z,14.51
2023-01-01T10:25:23.235Z,14.54
2023-01-01T10:26:23.227Z,14.51
2023-01-01T10:27:23.212Z,14.59
2023-01-01T10:28:23.215Z,14.55
2023-01-01T10:29:23.221Z,14.43
2023-01-01T10:30:23.308Z,14.55
2023-01-01T10:31:23.235Z,14.48
2023-01-01T10:32:23.176Z,14.50
2023-01-01T10:33:23.169Z,14.47
2023-01-01T10:34:23.189Z,14.51
2023-01-01T10:35:28.454Z,14.54
2023-01-01T10:36:25.146Z,14.55
2023-01-01T10:37:23.144Z,14.63
2023-01-01T10:38:23.127Z,14.72
2023-01-01T10:39:23.147Z,14.78
2023-01-01T10:40:23.119Z,14.77
2023-01-01T10:41:23.110Z,14.78
2023-01-01T10:42:23.095Z,14.81
2023-01-01T10:43:23.095Z,14.81
2023-01-01T10:44:23.114Z,14.99
2023-01-01T10:45:23.072Z,14.92
2023-01-01T10:46:29.533Z,14.91
2023-01-01T10:47:25.053Z,14.94
2023-01-01T10:48:23.051Z,14.82
2023-01-01T10:49:23.077Z,14.88
2023-01-01T10:50:23.041Z,14.88
2023-01-01T10:51:23.035Z,14.88
2023-01-01T10:52:23.029Z,14.88
2023-01-01T10:53:23.009Z,14.81
2023-01-01T10:54:26.561Z,14.85
2023-01-01T10:55:24.995Z,14.91
2023-01-01T10:56:22.987Z,14.81
2023-01-01T10:57:22.982Z,14.92
2023-01-01T10:58:22.977Z,14.82
2023-01-01T10:59:23.078Z,14.91
2023-01-01T11:00:22.959Z,14.86
2023-01-01T11:01:23.034Z,14.86
2023-01-01T11:02:23.143Z,14.81
2023-01-01T11:03:22.999Z,14.89
2023-01-01T11:04:22.951Z,14.81
2023-01-01T11:05:23.050Z,14.85
2023-01-01T11:06:22.904Z,14.85
2023-01-01T11:07:22.897Z,14.85
2023-01-01T11:08:22.888Z,14.84
2023-01-01T11:09:22.875Z,14.86
2023-01-01T11:10:22.890Z,14.82
2023-01-01T11:11:22.866Z,14.69
2023-01-01T11:12:54.544Z,14.69
2023-01-01T11:13:24.881Z,14.68
2023-01-01T11:14:22.856Z,14.77
2023-01-01T11:15:22.857Z,14.73
2023-01-01T11:16:22.882Z,14.72
2023-01-01T11:17:22.830Z,14.69
2023-01-01T11:18:22.814Z,14.69
2023-01-01T11:19:22.805Z,14.59
2023-01-01T11:20:22.826Z,14.68
2023-01-01T11:21:22.786Z,14.72
2023-01-01T11:22:22.777Z,14.66
2023-01-01T11:23:22.768Z,14.78
2023-01-01T11:24:22.770Z,14.69
2023-01-01T11:25:22.794Z,14.65
2023-01-01T11:26:22.759Z,14.66
2023-01-01T11:27:22.747Z,14.78
2023-01-01T11:28:22.732Z,14.70
2023-01-01T11:29:22.723Z,14.72
2023-01-01T11:30:22.761Z,14.81
2023-01-01T11:31:22.806Z,14.79
2023-01-01T11:32:22.753Z,14.72
2023-01-01T11:33:22.705Z,14.66
2023-01-01T11:34:22.779Z,14.78
2023-01-01T11:35:22.733Z,14.85
2023-01-01T11:36:22.679Z,14.86
2023-01-01T11:37:22.669Z,14.68
2023-01-01T11:38:29.280Z,14.81
2023-01-01T11:39:24.647Z,14.82
2023-01-01T11:40:22.709Z,14.79
2023-01-01T11:41:22.631Z,14.79
2023-01-01T11:42:22.631Z,14.82
2023-01-01T11:43:22.628Z,14.77
2023-01-01T11:44:22.638Z,14.77
2023-01-01T11:45:22.669Z,14.78
2023-01-01T11:46:22.680Z,14.66
2023-01-01T11:47:22.602Z,14.63
2023-01-01T11:48:22.618Z,14.60
2023-01-01T11:49:22.620Z,14.62
2023-01-01T11:50:22.591Z,14.60
2023-01-01T11:51:22.583Z,14.66
2023-01-01T11:52:22.547Z,14.63
2023-01-01T11:53:22.534Z,14.60
2023-01-01T11:54:22.537Z,14.60
2023-01-01T11:55:22.567Z,14.53
2023-01-01T11:56:22.523Z,14.48
2023-01-01T11:57:22.511Z,14.54
2023-01-01T11:58:22.494Z,14.55
2023-01-01T11:59:22.497Z,14.51
2023-01-01T12:00:22.531Z,14.43
2023-01-01T12:01:22.507Z,14.51
2023-01-01T12:02:22.480Z,14.48
2023-01-01T12:03:23.331Z,14.55
2023-01-01T12:04:22.528Z,14.51
2023-01-01T12:05:22.475Z,14.48
2023-01-01T12:06:22.435Z,14.48
2023-01-01T12:07:22.430Z,14.48
2023-01-01T12:08:22.416Z,14.43
2023-01-01T12:09:22.409Z,14.50
2023-01-01T12:10:22.432Z,14.54
2023-01-01T12:11:22.410Z,14.44
2023-01-01T12:12:22.411Z,14.43
2023-01-01T12:13:22.385Z,14.40
2023-01-01T12:14:22.374Z,14.36
2023-01-01T12:15:22.401Z,14.40
2023-01-01T12:16:22.511Z,14.41
2023-01-01T12:17:22.357Z,14.43
2023-01-01T12:18:22.342Z,14.30
2023-01-01T12:19:22.344Z,14.29
2023-01-01T12:20:22.321Z,14.22
2023-01-01T12:21:22.345Z,14.26
2023-01-01T12:22:22.305Z,14.36
2023-01-01T12:23:22.297Z,14.33
2023-01-01T12:24:23.292Z,14.29
2023-01-01T12:25:22.280Z,14.30
2023-01-01T12:26:22.306Z,14.22
2023-01-01T12:27:22.270Z,14.18
2023-01-01T12:28:22.267Z,14.29
2023-01-01T12:29:22.260Z,14.18
2023-01-01T12:30:22.271Z,14.22
2023-01-01T12:31:22.317Z,14.28
2023-01-01T12:32:22.231Z,14.36
2023-01-01T12:33:22.214Z,14.25
2023-01-01T12:34:22.209Z,14.23
2023-01-01T12:35:22.210Z,14.20
2023-01-01T12:36:22.220Z,14.15
2023-01-01T12:37:22.188Z,14.18
2023-01-01T12:38:22.254Z,14.07
2023-01-01T12:39:22.197Z,14.12
2023-01-01T12:40:24.725Z,14.14
2023-01-01T12:41:23.185Z,14.17
2023-01-01T12:42:22.145Z,14.10
2023-01-01T12:43:22.132Z,14.11
2023-01-01T12:44:22.141Z,14.14
2023-01-01T12:45:25.713Z,14.12
2023-01-01T12:46:24.197Z,14.17
2023-01-01T12:47:22.117Z,14.18
2023-01-01T12:48:22.096Z,14.08
2023-01-01T12:49:22.089Z,14.04
2023-01-01T12:50:22.094Z,14.03
2023-01-01T12:51:22.098Z,14.07
2023-01-01T12:52:22.065Z,14.07